Terminal Aerodrome Forecast
Issued by NWS Huntsville, AL

Home | Current Version | Previous Version | Text Only | Print | Product List | Glossary On
Versions: 1 2 3 4 5 6 7 8 9 10 11 12 13 14 15 16 17 18 19 20 21 22 23 24
000
FTUS44 KHUN 020521
TAFMSL
TAF
KMSL 020521Z 0206/0306 VRB02KT P6SM SCT120 BKN250
      TEMPO 0209/0212 3SM BR SCT012
     FM021500 VRB03KT P6SM SCT030 BKN120
     FM021800 12005KT P6SM VCTS SCT035CB BKN090
     FM030000 VRB02KT P6SM SCT090 BKN180=

USA.gov is the U.S. government's official web portal to all federal, state and local government web resources and services.